createdAt,value
2018-07-24T00:00:04.060Z,14.70
2018-07-24T00:02:32.657Z,14.10
2018-07-24T00:05:00.212Z,14.13
2018-07-24T00:07:27.745Z,13.90
2018-07-24T00:09:55.310Z,14.13
2018-07-24T00:12:22.869Z,14.80
2018-07-24T00:14:51.176Z,13.80
2018-07-24T00:17:18.753Z,13.40
2018-07-24T00:19:46.296Z,14.83
2018-07-24T00:22:13.867Z,13.80
2018-07-24T00:24:41.417Z,14.07
2018-07-24T00:27:08.961Z,14.00
2018-07-24T00:29:36.530Z,13.73
2018-07-24T00:32:04.168Z,14.70
2018-07-24T00:34:31.701Z,13.60
2018-07-24T00:36:59.236Z,13.83
2018-07-24T00:39:26.764Z,14.33
2018-07-24T00:41:54.327Z,13.93
2018-07-24T00:44:21.864Z,15.50
2018-07-24T00:46:49.425Z,13.43
2018-07-24T00:49:17.068Z,14.30
2018-07-24T00:51:44.600Z,15.00
2018-07-24T00:54:12.974Z,14.87
2018-07-24T00:56:40.482Z,15.13
2018-07-24T00:59:08.040Z,13.53
2018-07-24T01:01:35.574Z,14.77
2018-07-24T01:04:03.130Z,14.00
2018-07-24T01:06:30.693Z,14.77
2018-07-24T01:08:58.257Z,14.77
2018-07-24T01:11:25.792Z,15.50
2018-07-24T01:13:53.345Z,14.93
2018-07-24T01:16:20.909Z,14.63
2018-07-24T01:18:48.465Z,14.83
2018-07-24T01:21:16.006Z,14.23
2018-07-24T01:23:43.573Z,13.93
2018-07-24T01:26:11.117Z,14.07
2018-07-24T01:28:39.441Z,13.90
2018-07-24T01:31:07.929Z,15.83
2018-07-24T01:33:35.501Z,14.57
2018-07-24T01:36:03.037Z,14.17
2018-07-24T01:38:30.572Z,14.43
2018-07-24T01:40:58.135Z,14.20
2018-07-24T01:43:25.660Z,13.90
2018-07-24T01:45:53.226Z,14.00
2018-07-24T01:48:20.905Z,13.30
2018-07-24T01:50:48.441Z,12.80
2018-07-24T01:53:16.005Z,13.53
2018-07-24T01:55:43.541Z,13.43
2018-07-24T01:58:11.105Z,13.73
2018-07-24T02:00:38.641Z,13.33
2018-07-24T02:03:06.204Z,13.53
2018-07-24T02:05:33.737Z,13.40
2018-07-24T02:08:01.301Z,13.57
2018-07-24T02:10:28.867Z,14.30
2018-07-24T02:12:56.405Z,13.90
2018-07-24T02:15:24.920Z,14.13
2018-07-24T02:17:52.461Z,13.03
2018-07-24T02:20:20.970Z,14.50
2018-07-24T02:22:48.505Z,14.47
2018-07-24T02:25:16.045Z,13.87
2018-07-24T02:27:43.609Z,14.47
2018-07-24T02:30:11.191Z,13.20
2018-07-24T02:32:38.753Z,14.03
2018-07-24T02:35:06.298Z,14.23
2018-07-24T02:37:34.629Z,13.80
2018-07-24T02:40:02.198Z,13.10
2018-07-24T02:42:29.739Z,13.27
2018-07-24T02:44:59.261Z,13.63
2018-07-24T02:47:26.799Z,13.20
2018-07-24T02:49:54.355Z,12.90
2018-07-24T02:52:21.898Z,13.47
2018-07-24T02:54:49.434Z,14.00
2018-07-24T02:57:17.000Z,14.37
2018-07-24T02:59:44.533Z,13.73
2018-07-24T03:02:12.861Z,13.57
2018-07-24T03:04:40.433Z,14.30
2018-07-24T03:07:07.969Z,14.13
2018-07-24T03:09:35.531Z,14.20
2018-07-24T03:12:03.070Z,14.10
2018-07-24T03:14:30.837Z,14.00
2018-07-24T03:16:58.368Z,14.40
2018-07-24T03:19:25.938Z,14.90
2018-07-24T03:21:53.505Z,14.80
2018-07-24T03:24:21.076Z,14.60
2018-07-24T03:26:48.644Z,15.30
2018-07-24T03:29:16.185Z,14.00
2018-07-24T03:31:43.759Z,13.80
2018-07-24T03:34:11.298Z,15.33
2018-07-24T03:36:39.773Z,13.80
2018-07-24T03:39:07.309Z,14.40
2018-07-24T03:41:34.869Z,14.00
2018-07-24T03:44:03.386Z,14.13
2018-07-24T03:46:30.932Z,13.27
2018-07-24T03:48:58.497Z,14.10
2018-07-24T03:51:26.063Z,13.47
2018-07-24T03:53:53.597Z,13.13
2018-07-24T03:56:23.109Z,14.10
2018-07-24T03:58:50.650Z,15.37
2018-07-24T04:01:19.169Z,13.80
2018-07-24T04:03:46.709Z,14.53
2018-07-24T04:06:14.258Z,13.17
2018-07-24T04:08:41.818Z,13.43
2018-07-24T04:11:09.378Z,13.53
2018-07-24T04:13:36.941Z,14.47
2018-07-24T04:16:04.477Z,13.73
2018-07-24T04:18:32.041Z,14.13
2018-07-24T04:20:59.611Z,13.80
2018-07-24T04:23:27.169Z,14.20
2018-07-24T04:25:55.657Z,13.70
2018-07-24T04:28:23.197Z,14.00
2018-07-24T04:30:50.783Z,13.90
2018-07-24T04:33:18.326Z,13.53
2018-07-24T04:35:45.892Z,13.70
2018-07-24T04:38:13.429Z,14.87
2018-07-24T04:40:40.989Z,13.80
2018-07-24T04:43:08.530Z,14.87
2018-07-24T04:45:36.093Z,14.40
2018-07-24T04:48:03.655Z,14.73
2018-07-24T04:50:31.232Z,14.23
2018-07-24T04:52:58.806Z,13.50
2018-07-24T04:55:27.132Z,13.00
2018-07-24T04:57:54.701Z,13.07
2018-07-24T05:00:22.265Z,12.83
2018-07-24T05:02:49.831Z,12.57
2018-07-24T05:05:17.379Z,13.27
2018-07-24T05:07:44.913Z,12.07
2018-07-24T05:10:12.534Z,12.30
2018-07-24T05:12:40.042Z,13.17
2018-07-24T05:15:07.968Z,14.70
2018-07-24T05:17:35.514Z,14.00
2018-07-24T05:20:03.843Z,12.90
2018-07-24T05:22:31.405Z,13.50
2018-07-24T05:24:58.937Z,13.47
2018-07-24T05:27:26.502Z,14.40
2018-07-24T05:29:55.001Z,14.87
2018-07-24T05:32:22.570Z,14.50
2018-07-24T05:34:51.070Z,14.63
2018-07-24T05:37:19.409Z,15.03
2018-07-24T05:39:46.940Z,13.47
2018-07-24T05:42:15.553Z,14.87
2018-07-24T05:44:43.119Z,14.03
2018-07-24T05:47:10.656Z,13.77
2018-07-24T05:49:38.236Z,14.37
2018-07-24T05:52:05.804Z,11.73
2018-07-24T05:54:33.379Z,11.07
2018-07-24T05:57:00.917Z,9.80
2018-07-24T05:59:28.477Z,9.43
2018-07-24T06:01:56.055Z,9.13
2018-07-24T06:04:23.605Z,9.20
2018-07-24T06:06:51.936Z,9.50
2018-07-24T06:09:19.472Z,8.37
2018-07-24T06:11:47.034Z,8.70
2018-07-24T06:14:14.565Z,8.67
2018-07-24T06:16:42.165Z,8.57
2018-07-24T06:19:09.674Z,8.27
2018-07-24T06:21:38.303Z,8.17
2018-07-24T06:24:05.815Z,7.90
2018-07-24T06:26:33.360Z,8.43
2018-07-24T06:29:00.917Z,7.90
2018-07-24T06:31:31.153Z,7.70
2018-07-24T06:33:58.714Z,8.27
2018-07-24T06:36:26.245Z,7.13
2018-07-24T06:38:53.802Z,7.80
2018-07-24T06:41:22.101Z,7.97
2018-07-24T06:43:49.657Z,7.40
2018-07-24T06:46:17.193Z,8.00
2018-07-24T06:48:44.759Z,8.03
2018-07-24T06:51:12.312Z,7.50
2018-07-24T06:53:40.634Z,7.80
2018-07-24T06:56:08.174Z,7.63
2018-07-24T06:58:35.715Z,8.13
2018-07-24T07:01:03.277Z,7.50
2018-07-24T07:03:30.858Z,7.57
2018-07-24T07:05:59.395Z,7.83
2018-07-24T07:08:26.950Z,7.30
2018-07-24T07:10:55.252Z,7.83
2018-07-24T07:13:22.878Z,7.00
2018-07-24T07:15:50.434Z,7.27
2018-07-24T07:18:18.004Z,7.57
2018-07-24T07:20:46.323Z,6.90
2018-07-24T07:23:13.888Z,7.40
2018-07-24T07:25:41.444Z,7.20
2018-07-24T07:28:09.017Z,6.30
2018-07-24T07:30:37.535Z,6.20
2018-07-24T07:33:05.146Z,6.93
2018-07-24T07:35:32.677Z,6.97
2018-07-24T07:38:00.220Z,6.93
2018-07-24T07:40:27.807Z,6.60
2018-07-24T07:42:56.309Z,6.70
2018-07-24T07:45:23.933Z,7.10
2018-07-24T07:47:53.445Z,6.57
2018-07-24T07:50:20.997Z,6.87
2018-07-24T07:52:48.560Z,6.13
2018-07-24T07:55:16.304Z,6.87
2018-07-24T07:57:43.865Z,7.27
2018-07-24T08:00:11.398Z,6.47
2018-07-24T08:02:38.989Z,6.20
2018-07-24T08:05:07.133Z,6.25
2018-07-24T08:07:36.638Z,44.43
2018-07-24T08:10:04.173Z,6.27
2018-07-24T08:12:31.713Z,6.70
2018-07-24T08:14:59.269Z,6.97
2018-07-24T08:17:26.797Z,6.93
2018-07-24T08:19:54.362Z,6.90
2018-07-24T08:22:21.910Z,7.10
2018-07-24T08:24:49.472Z,6.63
2018-07-24T08:27:17.405Z,6.97
2018-07-24T08:29:44.966Z,6.23
2018-07-24T08:32:13.445Z,7.30
2018-07-24T08:34:41.021Z,6.33
2018-07-24T08:37:08.574Z,6.33
2018-07-24T08:39:36.125Z,6.10
2018-07-24T08:42:03.654Z,6.30
2018-07-24T08:44:33.145Z,6.07
2018-07-24T08:47:00.702Z,5.80
2018-07-24T08:49:28.258Z,5.93
2018-07-24T08:51:56.555Z,6.37
2018-07-24T08:54:24.278Z,6.37
2018-07-24T08:56:52.643Z,10.83
2018-07-24T08:59:20.193Z,5.90
2018-07-24T09:01:47.739Z,6.13
2018-07-24T09:04:15.352Z,9.17
2018-07-24T09:06:42.867Z,7.10
2018-07-24T09:09:10.398Z,5.20
2018-07-24T09:11:37.957Z,8.30
2018-07-24T09:14:06.446Z,6.03
2018-07-24T09:16:34.009Z,5.87
2018-07-24T09:19:01.566Z,6.10
2018-07-24T09:21:30.090Z,5.57
2018-07-24T09:23:57.643Z,6.80
2018-07-24T09:26:25.200Z,5.73
2018-07-24T09:28:52.761Z,5.40
2018-07-24T09:31:20.421Z,5.70
2018-07-24T09:33:48.001Z,6.90
2018-07-24T09:36:15.537Z,6.80
2018-07-24T09:38:43.089Z,5.60
2018-07-24T09:41:10.653Z,6.73
2018-07-24T09:43:38.337Z,5.50
2018-07-24T09:46:05.878Z,5.30
2018-07-24T09:48:33.409Z,6.83
2018-07-24T09:51:00.977Z,5.40
2018-07-24T09:53:28.519Z,5.57
2018-07-24T09:55:56.836Z,5.70
2018-07-24T09:58:24.366Z,6.23
2018-07-24T10:00:51.921Z,5.63
2018-07-24T10:03:19.461Z,5.90
2018-07-24T10:05:48.922Z,5.57
2018-07-24T10:08:16.446Z,5.70
2018-07-24T10:10:44.001Z,5.33
2018-07-24T10:13:11.570Z,6.00
2018-07-24T10:15:40.149Z,5.60
2018-07-24T10:18:07.701Z,6.37
2018-07-24T10:20:35.267Z,6.30
2018-07-24T10:23:02.821Z,6.03
2018-07-24T10:25:30.355Z,6.07
2018-07-24T10:27:58.649Z,5.87
2018-07-24T10:30:26.233Z,6.23
2018-07-24T10:32:53.762Z,6.57
2018-07-24T10:35:22.322Z,6.40
2018-07-24T10:37:50.622Z,10.40
2018-07-24T10:40:18.203Z,22.77
2018-07-24T10:42:45.737Z,5.90
2018-07-24T10:45:13.270Z,6.03
2018-07-24T10:47:40.826Z,5.50
2018-07-24T10:50:08.397Z,5.70
2018-07-24T10:52:35.929Z,5.70
2018-07-24T10:55:03.494Z,5.47
2018-07-24T10:57:31.064Z,6.20
2018-07-24T10:59:58.621Z,6.03
2018-07-24T11:02:26.154Z,5.73
2018-07-24T11:04:54.478Z,5.80
2018-07-24T11:07:23.562Z,5.50
2018-07-24T11:09:51.173Z,5.33
2018-07-24T11:12:18.733Z,10.53
2018-07-24T11:14:46.289Z,5.00
2018-07-24T11:17:14.814Z,5.40
2018-07-24T11:19:43.344Z,5.10
2018-07-24T11:22:11.043Z,5.10
2018-07-24T11:24:38.458Z,11.40
2018-07-24T11:27:06.980Z,5.70
2018-07-24T11:29:34.505Z,4.97
2018-07-24T11:32:02.069Z,5.10
2018-07-24T11:34:30.362Z,4.97
2018-07-24T11:36:57.920Z,5.00
2018-07-24T11:39:25.458Z,4.90
2018-07-24T11:41:53.017Z,4.93
2018-07-24T11:44:21.655Z,5.50
2018-07-24T11:46:49.193Z,5.30
2018-07-24T11:49:18.701Z,9.30
2018-07-24T11:51:46.336Z,5.00
2018-07-24T11:54:13.862Z,4.53
2018-07-24T11:56:41.404Z,5.03
2018-07-24T11:59:08.964Z,8.63
2018-07-24T12:01:36.613Z,4.47
2018-07-24T12:04:04.173Z,4.23
2018-07-24T12:06:31.705Z,4.40
2018-07-24T12:08:59.233Z,4.00
2018-07-24T12:11:26.789Z,4.13
2018-07-24T12:13:54.321Z,4.00
2018-07-24T12:16:22.723Z,4.90
2018-07-24T12:18:50.248Z,4.80
2018-07-24T12:21:18.789Z,4.13
2018-07-24T12:23:46.321Z,4.40
2018-07-24T12:26:13.886Z,4.87
2018-07-24T12:28:41.415Z,4.03
2018-07-24T12:31:08.974Z,4.07
2018-07-24T12:33:37.488Z,3.97
2018-07-24T12:36:05.088Z,4.10
2018-07-24T12:38:32.591Z,4.10
2018-07-24T12:41:00.117Z,4.40
2018-07-24T12:43:27.679Z,4.13
2018-07-24T12:45:55.253Z,4.30
2018-07-24T12:48:23.028Z,4.70
2018-07-24T12:50:50.566Z,3.90
2018-07-24T12:53:18.129Z,4.40
2018-07-24T12:55:46.653Z,4.17
2018-07-24T12:58:14.205Z,3.90
2018-07-24T13:00:42.347Z,4.00
2018-07-24T13:03:09.930Z,3.40
2018-07-24T13:05:37.491Z,3.63
2018-07-24T13:08:05.061Z,3.37
2018-07-24T13:10:32.593Z,3.63
2018-07-24T13:13:00.149Z,3.73
2018-07-24T13:15:27.681Z,3.90
2018-07-24T13:17:55.260Z,3.73
2018-07-24T13:20:22.806Z,3.63
2018-07-24T13:22:50.369Z,3.77
2018-07-24T13:25:17.924Z,4.50
2018-07-24T13:27:45.452Z,5.10
2018-07-24T13:30:13.009Z,3.70
2018-07-24T13:32:40.538Z,3.77
2018-07-24T13:35:08.857Z,6.30
2018-07-24T13:37:36.448Z,7.83
2018-07-24T13:40:03.963Z,4.60
2018-07-24T13:42:31.517Z,3.67
2018-07-24T13:44:59.073Z,4.30
2018-07-24T13:47:26.644Z,3.60
2018-07-24T13:49:54.305Z,3.57
2018-07-24T13:52:21.869Z,4.10
2018-07-24T13:54:49.409Z,6.30
2018-07-24T13:57:16.970Z,4.70
2018-07-24T13:59:44.505Z,4.70
2018-07-24T14:02:12.041Z,6.33
2018-07-24T14:04:39.598Z,7.47
2018-07-24T14:07:07.904Z,6.57
2018-07-24T14:09:35.464Z,6.60
2018-07-24T14:12:03.036Z,7.17
2018-07-24T14:14:30.597Z,6.35
2018-07-24T14:16:58.139Z,6.45
2018-07-24T14:19:25.912Z,5.50
2018-07-24T14:21:53.475Z,6.00
2018-07-24T14:24:21.021Z,5.82
2018-07-24T14:26:48.589Z,5.55
2018-07-24T14:29:16.127Z,5.53
2018-07-24T14:31:43.658Z,6.05
2018-07-24T14:34:11.225Z,5.22
2018-07-24T14:36:38.794Z,5.85
2018-07-24T14:39:06.358Z,4.65
2018-07-24T14:41:33.898Z,5.00
2018-07-24T14:44:01.461Z,4.67
2018-07-24T14:46:29.971Z,5.70
2018-07-24T14:48:57.563Z,5.20
2018-07-24T14:51:25.124Z,6.10
2018-07-24T14:53:52.685Z,7.97
2018-07-24T14:56:20.989Z,8.10
2018-07-24T14:58:48.533Z,7.40
2018-07-24T15:01:17.092Z,5.77
2018-07-24T15:03:44.625Z,6.30
2018-07-24T15:06:12.196Z,6.60
2018-07-24T15:08:39.733Z,8.90
2018-07-24T15:11:07.293Z,6.73
2018-07-24T15:13:34.826Z,8.03
2018-07-24T15:16:02.393Z,8.50
2018-07-24T15:18:30.880Z,7.17
2018-07-24T15:20:58.413Z,7.47
2018-07-24T15:23:25.967Z,7.13
2018-07-24T15:25:53.496Z,7.80
2018-07-24T15:28:21.059Z,7.53
2018-07-24T15:30:48.593Z,6.80
2018-07-24T15:33:16.144Z,7.47
2018-07-24T15:35:43.669Z,7.23
2018-07-24T15:38:11.193Z,7.50
2018-07-24T15:40:38.757Z,7.23
2018-07-24T15:43:06.291Z,7.30
2018-07-24T15:45:33.857Z,57.87
2018-07-24T15:48:01.522Z,30.53
2018-07-24T15:50:29.303Z,17.33
2018-07-24T15:52:56.865Z,13.37
2018-07-24T15:55:24.430Z,9.20
2018-07-24T15:57:52.453Z,7.90
2018-07-24T16:00:20.884Z,7.90
2018-07-24T16:02:48.499Z,8.10
2018-07-24T16:05:16.055Z,7.50
2018-07-24T16:07:43.841Z,7.00
2018-07-24T16:10:12.346Z,7.70
2018-07-24T16:15:13.679Z,7.47
2018-07-24T16:17:42.224Z,7.83
2018-07-24T16:20:10.738Z,7.47
2018-07-24T16:22:38.298Z,7.27
2018-07-24T16:25:05.878Z,6.93
2018-07-24T16:27:33.446Z,8.00
2018-07-24T16:30:01.023Z,7.77
2018-07-24T16:32:28.601Z,7.30
2018-07-24T16:34:56.182Z,7.60
2018-07-24T16:37:23.715Z,7.33
2018-07-24T16:39:53.241Z,7.70
2018-07-24T16:42:20.776Z,8.57
2018-07-24T16:44:49.274Z,8.50
2018-07-24T16:47:16.856Z,8.93
2018-07-24T16:49:44.412Z,8.37
2018-07-24T16:52:11.985Z,8.70
2018-07-24T16:54:39.553Z,7.80
2018-07-24T16:57:07.118Z,8.17
2018-07-24T16:59:34.692Z,7.60
2018-07-24T17:02:02.277Z,8.30
2018-07-24T17:04:29.834Z,8.67
2018-07-24T17:06:57.369Z,9.37
2018-07-24T17:09:24.955Z,8.73
2018-07-24T17:11:52.510Z,9.17
2018-07-24T17:14:20.100Z,8.50
2018-07-24T17:16:48.674Z,9.87
2018-07-24T17:19:16.325Z,8.10
2018-07-24T17:21:43.886Z,8.67
2018-07-24T17:24:11.525Z,8.73
2018-07-24T17:26:39.150Z,9.03
2018-07-24T17:29:06.663Z,10.13
2018-07-24T17:31:34.247Z,13.70
2018-07-24T17:34:02.749Z,9.50
2018-07-24T17:36:32.324Z,9.70
2018-07-24T17:39:00.655Z,9.07
2018-07-24T17:41:28.251Z,10.17
2018-07-24T17:43:55.822Z,10.97
2018-07-24T17:46:23.421Z,8.80
2018-07-24T17:48:50.961Z,9.20
2018-07-24T17:51:18.532Z,9.53
2018-07-24T17:53:46.135Z,8.43
2018-07-24T17:56:13.725Z,8.80
2018-07-24T17:58:41.352Z,8.90
2018-07-24T18:01:09.008Z,8.70
2018-07-24T18:03:36.572Z,9.00
2018-07-24T18:06:04.158Z,8.80
2018-07-24T18:08:31.745Z,8.93
2018-07-24T18:10:59.318Z,9.07
2018-07-24T18:13:26.857Z,8.60
2018-07-24T18:15:54.483Z,8.60
2018-07-24T18:18:22.050Z,8.67
2018-07-24T18:20:49.614Z,9.90
2018-07-24T18:23:17.162Z,10.10
2018-07-24T18:25:44.725Z,8.90
2018-07-24T18:28:12.342Z,9.53
2018-07-24T18:30:39.889Z,8.50
2018-07-24T18:33:07.531Z,9.50
2018-07-24T18:35:35.098Z,8.57
2018-07-24T18:38:02.693Z,8.37
2018-07-24T18:40:31.007Z,8.93
2018-07-24T18:42:58.581Z,8.87
2018-07-24T18:45:26.145Z,8.10
2018-07-24T18:47:54.646Z,8.80
2018-07-24T18:50:22.212Z,9.20
2018-07-24T18:52:49.785Z,11.00
2018-07-24T18:55:17.394Z,10.20
2018-07-24T18:57:44.956Z,9.03
2018-07-24T19:00:12.554Z,9.50
2018-07-24T19:02:41.850Z,8.63
2018-07-24T19:05:10.173Z,9.20
2018-07-24T19:07:37.762Z,12.93
2018-07-24T19:10:05.336Z,9.37
2018-07-24T19:12:32.918Z,9.37
2018-07-24T19:15:00.472Z,9.23
2018-07-24T19:17:28.075Z,10.00
2018-07-24T19:19:55.632Z,8.70
2018-07-24T19:22:23.198Z,9.57
2018-07-24T19:24:50.838Z,10.27
2018-07-24T19:27:18.403Z,9.57
2018-07-24T19:29:45.981Z,9.03
2018-07-24T19:32:14.297Z,10.30
2018-07-24T19:34:41.862Z,10.53
2018-07-24T19:37:09.466Z,10.10
2018-07-24T19:39:37.034Z,9.57
2018-07-24T19:42:05.394Z,10.77
2018-07-24T19:44:32.962Z,10.33
2018-07-24T19:47:00.574Z,10.00
2018-07-24T19:49:28.240Z,9.70
2018-07-24T19:51:55.749Z,10.57
2018-07-24T19:54:23.327Z,9.93
2018-07-24T19:56:50.906Z,8.97
2018-07-24T19:59:19.451Z,9.67
2018-07-24T20:01:47.762Z,9.37
2018-07-24T20:04:15.334Z,9.67
2018-07-24T20:06:42.885Z,10.57
2018-07-24T20:09:10.494Z,10.67
2018-07-24T20:11:38.799Z,9.17
2018-07-24T20:14:06.345Z,9.60
2018-07-24T20:16:33.991Z,9.13
2018-07-24T20:19:01.532Z,8.80
2018-07-24T20:21:29.894Z,8.93
2018-07-24T20:23:57.486Z,9.30
2018-07-24T20:26:25.077Z,9.90
2018-07-24T20:28:52.712Z,9.40
2018-07-24T20:31:20.290Z,10.20
2018-07-24T20:33:47.842Z,8.93
2018-07-24T20:36:15.377Z,10.17
2018-07-24T20:38:42.943Z,9.70
2018-07-24T20:41:10.489Z,9.50
2018-07-24T20:43:38.096Z,10.40
2018-07-24T20:46:05.664Z,10.60
2018-07-24T20:48:33.245Z,9.80
2018-07-24T20:51:00.799Z,10.10
2018-07-24T20:53:28.411Z,10.70
2018-07-24T20:55:55.963Z,12.80
2018-07-24T20:58:23.520Z,11.00
2018-07-24T21:00:51.115Z,9.60
2018-07-24T21:03:18.690Z,9.67
2018-07-24T21:05:46.301Z,9.73
2018-07-24T21:08:14.321Z,10.23
2018-07-24T21:10:42.874Z,10.80
2018-07-24T21:13:10.490Z,10.80
2018-07-24T21:15:38.079Z,11.33
2018-07-24T21:18:05.646Z,11.30
2018-07-24T21:20:33.218Z,10.53
2018-07-24T21:23:01.557Z,10.37
2018-07-24T21:25:29.159Z,9.50
2018-07-24T21:27:56.779Z,9.53
2018-07-24T21:30:24.345Z,10.30
2018-07-24T21:32:51.938Z,10.50
2018-07-24T21:35:20.250Z,8.53
2018-07-24T21:37:47.819Z,9.07
2018-07-24T21:40:15.413Z,9.67
2018-07-24T21:42:43.024Z,10.60
2018-07-24T21:45:10.605Z,9.07
2018-07-24T21:47:38.146Z,9.80
2018-07-24T21:52:39.709Z,9.67
2018-07-24T21:55:07.305Z,10.10
2018-07-24T21:57:35.652Z,10.17
2018-07-24T22:00:03.201Z,12.03
2018-07-24T22:02:30.808Z,11.60
2018-07-24T22:04:58.390Z,11.40
2018-07-24T22:07:25.980Z,13.53
2018-07-24T22:09:53.544Z,12.57
2018-07-24T22:12:21.144Z,12.30
2018-07-24T22:14:49.675Z,11.83
2018-07-24T22:17:17.281Z,11.17
2018-07-24T22:19:45.602Z,12.60
2018-07-24T22:22:13.184Z,11.30
2018-07-24T22:24:40.788Z,11.80
2018-07-24T22:27:08.675Z,11.03
2018-07-24T22:29:36.254Z,11.37
2018-07-24T22:32:03.828Z,11.50
2018-07-24T22:34:31.405Z,11.80
2018-07-24T22:36:58.962Z,11.60
2018-07-24T22:39:27.311Z,12.00
2018-07-24T22:41:54.878Z,12.10
2018-07-24T22:44:22.426Z,11.30
2018-07-24T22:46:50.034Z,12.37
2018-07-24T22:49:17.582Z,13.00
2018-07-24T22:51:45.152Z,15.57
2018-07-24T22:54:12.711Z,20.80
2018-07-24T22:56:40.367Z,18.90
2018-07-24T22:59:07.895Z,19.03
2018-07-24T23:01:36.225Z,17.60
2018-07-24T23:04:03.799Z,14.23
2018-07-24T23:06:31.349Z,12.83
2018-07-24T23:08:59.957Z,12.43
2018-07-24T23:11:27.523Z,14.20
2018-07-24T23:13:55.126Z,12.67
2018-07-24T23:16:22.675Z,12.20
2018-07-24T23:18:50.254Z,11.83
2018-07-24T23:21:17.822Z,12.17
2018-07-24T23:23:45.446Z,11.27
2018-07-24T23:26:13.043Z,11.60
2018-07-24T23:28:40.612Z,11.60
2018-07-24T23:31:08.192Z,12.73
2018-07-24T23:33:35.746Z,11.43
2018-07-24T23:36:03.350Z,12.30
2018-07-24T23:38:30.915Z,12.73
2018-07-24T23:40:59.462Z,11.63
2018-07-24T23:43:27.059Z,11.63
2018-07-24T23:45:54.638Z,11.80
2018-07-24T23:48:22.188Z,11.10
2018-07-24T23:50:49.789Z,10.90
2018-07-24T23:53:17.367Z,12.30
2018-07-24T23:55:44.937Z,12.53
2018-07-24T23:58:12.514Z,10.53
